createdAt,value
2018-11-26T00:01:04.007Z,36.95
2018-11-26T00:03:44.799Z,36.68
2018-11-26T00:06:24.088Z,35.85
2018-11-26T00:09:02.698Z,36.40
2018-11-26T00:11:38.397Z,35.83
2018-11-26T00:14:19.237Z,37.33
2018-11-26T00:16:59.002Z,38.88
2018-11-26T00:19:40.468Z,36.83
2018-11-26T00:22:20.763Z,36.15
2018-11-26T00:25:00.625Z,34.75
2018-11-26T00:27:41.642Z,39.33
2018-11-26T00:30:21.640Z,35.03
2018-11-26T00:33:00.324Z,37.48
2018-11-26T00:35:37.669Z,36.03
2018-11-26T00:38:16.859Z,36.42
2018-11-26T00:40:53.400Z,38.15
2018-11-26T00:43:31.639Z,36.13
2018-11-26T00:46:11.554Z,34.00
2018-11-26T00:48:49.845Z,35.98
2018-11-26T00:51:28.814Z,38.95
2018-11-26T00:54:08.808Z,33.08
2018-11-26T00:56:47.536Z,34.27
2018-11-26T00:59:25.637Z,33.90
2018-11-26T01:02:05.831Z,34.08
2018-11-26T01:04:43.992Z,32.63
2018-11-26T01:07:24.784Z,33.15
2018-11-26T01:10:03.703Z,29.07
2018-11-26T01:12:39.741Z,33.73
2018-11-26T01:15:18.031Z,30.40
2018-11-26T01:17:56.801Z,32.63
2018-11-26T01:20:37.191Z,31.05
2018-11-26T01:23:16.559Z,29.35
2018-11-26T01:25:56.173Z,29.87
2018-11-26T01:28:34.215Z,30.62
2018-11-26T01:31:13.704Z,34.10
2018-11-26T01:33:51.640Z,32.73
2018-11-26T01:36:31.639Z,30.80
2018-11-26T01:39:09.378Z,33.98
2018-11-26T01:41:49.920Z,31.00
2018-11-26T01:44:28.138Z,32.88
2018-11-26T01:47:08.305Z,32.15
2018-11-26T01:49:48.018Z,32.50
2018-11-26T01:52:25.898Z,36.25
2018-11-26T01:55:11.153Z,33.83
2018-11-26T01:57:51.468Z,32.90
2018-11-26T02:00:34.034Z,35.55
2018-11-26T02:03:13.304Z,34.30
2018-11-26T02:05:53.656Z,32.10
2018-11-26T02:08:31.640Z,32.85
2018-11-26T02:11:10.695Z,34.75
2018-11-26T02:13:49.715Z,34.27
2018-11-26T02:16:28.670Z,34.78
2018-11-26T02:19:09.270Z,33.45
2018-11-26T02:21:49.612Z,32.90
2018-11-26T02:24:27.180Z,32.08
2018-11-26T02:27:08.021Z,30.90
2018-11-26T02:29:48.136Z,34.80
2018-11-26T02:32:28.052Z,33.50
2018-11-26T02:35:07.516Z,33.13
2018-11-26T02:37:46.561Z,32.90
2018-11-26T02:40:31.331Z,36.28
2018-11-26T02:43:12.993Z,35.85
2018-11-26T02:45:47.314Z,34.67
2018-11-26T02:48:26.648Z,32.73
2018-11-26T02:51:06.365Z,37.85
2018-11-26T02:53:44.654Z,32.75
2018-11-26T02:56:25.494Z,36.20
2018-11-26T02:59:03.564Z,36.30
2018-11-26T03:01:43.028Z,34.38
2018-11-26T03:04:21.639Z,39.75
2018-11-26T03:07:00.911Z,38.90
2018-11-26T03:09:39.899Z,35.03
2018-11-26T03:12:18.216Z,40.80
2018-11-26T03:14:57.183Z,34.05
2018-11-26T03:17:37.279Z,39.40
2018-11-26T03:20:17.167Z,36.30
2018-11-26T03:22:56.683Z,39.38
2018-11-26T03:25:36.175Z,38.13
2018-11-26T03:28:17.864Z,35.58
2018-11-26T03:30:57.134Z,32.95
2018-11-26T03:33:38.005Z,33.53
2018-11-26T03:36:17.261Z,36.20
2018-11-26T03:38:58.279Z,38.60
2018-11-26T03:41:38.048Z,36.60
2018-11-26T03:44:18.335Z,37.67
2018-11-26T03:46:57.975Z,35.58
2018-11-26T03:49:37.321Z,36.73
2018-11-26T03:52:16.336Z,36.77
2018-11-26T03:54:56.277Z,37.95
2018-11-26T03:57:35.518Z,36.05
2018-11-26T04:00:16.069Z,37.13
2018-11-26T04:02:55.298Z,36.58
2018-11-26T04:05:33.862Z,32.83
2018-11-26T04:08:12.656Z,36.10
2018-11-26T04:10:51.640Z,35.58
2018-11-26T04:13:30.036Z,35.38
2018-11-26T04:16:09.559Z,34.00
2018-11-26T04:18:49.795Z,33.20
2018-11-26T04:21:30.734Z,33.40
2018-11-26T04:24:09.054Z,34.73
2018-11-26T04:26:48.222Z,33.33
2018-11-26T04:29:27.387Z,32.42
2018-11-26T04:32:00.003Z,36.35
2018-11-26T04:34:28.075Z,38.00
2018-11-26T04:37:02.617Z,37.30
2018-11-26T04:39:32.888Z,33.50
2018-11-26T04:42:12.887Z,34.73
2018-11-26T04:44:41.148Z,35.13
2018-11-26T04:47:18.466Z,33.65
2018-11-26T04:49:50.870Z,38.60
2018-11-26T04:52:18.818Z,38.38
2018-11-26T04:54:57.426Z,36.65
2018-11-26T04:57:26.949Z,36.88
2018-11-26T05:00:02.198Z,35.17
2018-11-26T05:02:34.499Z,34.85
2018-11-26T05:05:06.608Z,36.68
2018-11-26T05:07:43.754Z,38.30
2018-11-26T05:10:16.085Z,38.35
2018-11-26T05:12:45.748Z,41.08
2018-11-26T05:15:14.773Z,38.45
2018-11-26T05:17:44.970Z,38.08
2018-11-26T05:20:15.732Z,35.45
2018-11-26T05:22:50.335Z,35.25
2018-11-26T05:25:23.196Z,34.38
2018-11-26T05:27:53.667Z,36.25
2018-11-26T05:30:23.993Z,35.98
2018-11-26T05:32:52.039Z,38.33
2018-11-26T05:35:21.323Z,35.38
2018-11-26T05:37:52.133Z,33.40
2018-11-26T05:40:27.598Z,33.85
2018-11-26T05:43:01.658Z,33.40
2018-11-26T05:45:34.742Z,36.08
2018-11-26T05:48:08.388Z,34.00
2018-11-26T05:50:41.523Z,34.70
2018-11-26T05:53:16.104Z,33.92
2018-11-26T05:55:50.101Z,34.38
2018-11-26T05:58:25.308Z,35.63
2018-11-26T06:00:59.953Z,41.98
2018-11-26T06:03:34.019Z,35.40
2018-11-26T06:06:08.097Z,33.35
2018-11-26T06:08:42.853Z,34.35
2018-11-26T06:11:17.568Z,33.08
2018-11-26T06:13:52.936Z,33.73
2018-11-26T06:16:28.396Z,33.42
2018-11-26T06:19:01.639Z,36.45
2018-11-26T06:21:35.850Z,35.73
2018-11-26T06:24:06.168Z,34.67
2018-11-26T06:26:35.670Z,36.23
2018-11-26T06:29:08.195Z,36.35
2018-11-26T06:31:41.240Z,42.13
2018-11-26T06:34:11.142Z,36.93
2018-11-26T06:36:39.986Z,34.43
2018-11-26T06:39:11.576Z,36.80
2018-11-26T06:41:45.843Z,39.20
2018-11-26T06:44:15.511Z,35.35
2018-11-26T06:46:49.442Z,36.98
2018-11-26T06:49:21.452Z,37.00
2018-11-26T06:51:49.946Z,31.65
2018-11-26T06:54:20.303Z,34.18
2018-11-26T06:56:50.698Z,42.03
2018-11-26T06:59:25.739Z,35.83
2018-11-26T07:02:00.259Z,33.45
2018-11-26T07:04:29.774Z,40.70
2018-11-26T07:06:58.430Z,36.38
2018-11-26T07:09:33.683Z,37.83
2018-11-26T07:12:08.546Z,35.63
2018-11-26T07:14:42.610Z,34.50
2018-11-26T07:17:16.902Z,35.80
2018-11-26T07:19:51.640Z,33.60
2018-11-26T07:22:30.088Z,33.92
2018-11-26T07:25:10.049Z,39.73
2018-11-26T07:27:51.468Z,38.35
2018-11-26T07:30:30.283Z,37.35
2018-11-26T07:33:10.548Z,35.83
2018-11-26T07:35:48.766Z,35.68
2018-11-26T07:38:28.308Z,33.53
2018-11-26T07:41:07.658Z,35.70
2018-11-26T07:43:47.216Z,34.95
2018-11-26T07:46:26.857Z,34.78
2018-11-26T07:49:05.296Z,31.40
2018-11-26T07:51:43.565Z,34.85
2018-11-26T07:54:21.639Z,30.50
2018-11-26T07:57:01.639Z,34.53
2018-11-26T07:59:41.638Z,34.13
2018-11-26T08:02:21.076Z,31.35
2018-11-26T08:05:01.639Z,30.95
2018-11-26T08:07:41.639Z,34.53
2018-11-26T08:10:23.003Z,30.43
2018-11-26T08:13:04.566Z,30.60
2018-11-26T08:15:43.285Z,28.90
2018-11-26T08:18:21.639Z,31.95
2018-11-26T08:21:01.641Z,34.85
2018-11-26T08:23:41.460Z,30.02
2018-11-26T08:26:20.901Z,31.40
2018-11-26T08:28:59.713Z,31.90
2018-11-26T08:31:40.257Z,29.82
2018-11-26T08:34:20.327Z,28.15
2018-11-26T08:37:37.912Z,31.75
2018-11-26T08:40:18.426Z,28.35
2018-11-26T08:43:00.869Z,29.10
2018-11-26T08:45:46.713Z,30.35
2018-11-26T08:48:35.156Z,29.95
2018-11-26T08:51:14.477Z,31.45
2018-11-26T08:53:53.432Z,29.23
2018-11-26T08:56:31.643Z,33.75
2018-11-26T08:59:11.640Z,31.50
2018-11-26T09:01:59.732Z,28.87
2018-11-26T09:04:44.022Z,28.07
2018-11-26T09:07:25.920Z,30.37
2018-11-26T09:10:06.181Z,32.00
2018-11-26T09:12:46.222Z,29.55
2018-11-26T09:15:26.590Z,29.18
2018-11-26T09:18:05.654Z,26.97
2018-11-26T09:20:44.009Z,30.37
2018-11-26T09:23:25.289Z,31.75
2018-11-26T09:26:02.803Z,28.12
2018-11-26T09:28:44.095Z,27.85
2018-11-26T09:31:25.010Z,27.22
2018-11-26T09:34:05.305Z,28.67
2018-11-26T09:36:43.701Z,30.00
2018-11-26T09:39:24.658Z,28.62
2018-11-26T09:42:04.201Z,34.95
2018-11-26T09:44:44.018Z,25.68
2018-11-26T09:47:22.809Z,27.85
2018-11-26T09:50:02.673Z,36.60
2018-11-26T09:52:36.448Z,26.25
2018-11-26T09:55:07.955Z,25.82
2018-11-26T09:57:41.272Z,35.10
2018-11-26T10:00:15.944Z,35.05
2018-11-26T10:02:50.718Z,30.43
2018-11-26T10:05:25.986Z,31.02
2018-11-26T10:07:58.593Z,40.28
2018-11-26T10:10:31.333Z,25.62
2018-11-26T10:13:04.597Z,32.83
2018-11-26T10:15:37.441Z,33.50
2018-11-26T10:18:11.637Z,26.85
2018-11-26T10:20:44.467Z,23.83
2018-11-26T10:23:18.722Z,26.05
2018-11-26T10:25:52.184Z,26.25
2018-11-26T10:28:25.391Z,40.00
2018-11-26T10:30:54.474Z,32.90
2018-11-26T10:33:23.593Z,36.55
2018-11-26T10:35:56.239Z,32.60
2018-11-26T10:38:30.692Z,34.10
2018-11-26T10:41:03.658Z,28.50
2018-11-26T10:43:35.500Z,33.83
2018-11-26T10:46:07.983Z,34.43
2018-11-26T10:48:47.959Z,33.95
2018-11-26T10:51:21.641Z,30.12
2018-11-26T10:54:00.017Z,32.73
2018-11-26T10:56:37.506Z,32.13
2018-11-26T10:59:16.227Z,42.23
2018-11-26T11:02:55.961Z,38.95
2018-11-26T11:05:35.901Z,36.28
2018-11-26T11:08:16.677Z,29.32
2018-11-26T11:10:58.339Z,40.08
2018-11-26T11:13:36.979Z,40.52
2018-11-26T11:16:16.893Z,34.13
2018-11-26T11:18:58.286Z,44.95
2018-11-26T11:21:38.249Z,36.75
2018-11-26T11:24:18.744Z,45.20
2018-11-26T11:26:57.504Z,61.15
2018-11-26T11:29:36.803Z,70.85
2018-11-26T11:32:15.789Z,30.10
2018-11-26T11:34:58.434Z,45.70
2018-11-26T11:37:37.278Z,33.00
2018-11-26T11:40:17.315Z,36.73
2018-11-26T11:42:58.233Z,57.48
2018-11-26T11:45:35.514Z,48.28
2018-11-26T11:48:15.662Z,35.35
2018-11-26T11:50:54.580Z,40.95
2018-11-26T11:53:34.078Z,37.50
2018-11-26T11:56:16.665Z,36.55
2018-11-26T11:58:54.075Z,53.00
2018-11-26T12:01:32.843Z,40.17
2018-11-26T12:04:12.810Z,46.95
2018-11-26T12:06:51.638Z,42.08
2018-11-26T12:09:31.639Z,46.90
2018-11-26T12:12:11.137Z,42.93
2018-11-26T12:14:51.640Z,46.48
2018-11-26T12:17:31.092Z,35.50
2018-11-26T12:20:08.809Z,65.70
2018-11-26T12:22:52.977Z,40.83
2018-11-26T12:25:30.946Z,65.57
2018-11-26T12:28:11.638Z,52.90
2018-11-26T12:30:51.535Z,65.97
2018-11-26T12:33:31.442Z,46.28
2018-11-26T12:36:10.075Z,80.47
2018-11-26T12:38:50.023Z,70.22
2018-11-26T12:41:30.243Z,54.80
2018-11-26T12:44:02.456Z,48.13
2018-11-26T12:46:33.758Z,61.42
2018-11-26T12:49:11.515Z,38.95
2018-11-26T12:51:50.979Z,46.73
2018-11-26T12:54:31.273Z,46.00
2018-11-26T12:57:10.938Z,49.08
2018-11-26T12:59:51.066Z,44.83
2018-11-26T13:02:31.197Z,44.33
2018-11-26T13:05:11.476Z,41.55
2018-11-26T13:07:50.032Z,59.42
2018-11-26T13:10:30.344Z,35.30
2018-11-26T13:13:11.639Z,35.58
2018-11-26T13:15:50.504Z,44.10
2018-11-26T13:18:30.796Z,45.28
2018-11-26T13:21:10.510Z,40.80
2018-11-26T13:23:49.727Z,38.40
2018-11-26T13:26:28.317Z,36.00
2018-11-26T13:29:08.283Z,28.90
2018-11-26T13:31:48.852Z,36.25
2018-11-26T13:34:28.147Z,36.15
2018-11-26T13:37:08.207Z,45.60
2018-11-26T13:39:48.477Z,39.18
2018-11-26T13:42:27.965Z,39.03
2018-11-26T13:45:08.481Z,38.73
2018-11-26T13:47:47.276Z,50.85
2018-11-26T13:50:28.066Z,35.63
2018-11-26T13:53:06.783Z,45.90
2018-11-26T13:55:46.455Z,34.05
2018-11-26T13:58:24.888Z,36.40
2018-11-26T14:01:04.572Z,41.33
2018-11-26T14:03:42.471Z,36.20
2018-11-26T14:06:21.640Z,39.63
2018-11-26T14:09:03.178Z,37.45
2018-11-26T14:11:44.994Z,38.90
2018-11-26T14:14:24.014Z,36.77
2018-11-26T14:17:05.202Z,38.65
2018-11-26T14:19:43.021Z,34.27
2018-11-26T14:22:24.061Z,31.87
2018-11-26T14:24:59.604Z,35.85
2018-11-26T14:27:40.666Z,30.12
2018-11-26T14:30:22.526Z,40.78
2018-11-26T14:33:02.750Z,35.17
2018-11-26T14:35:41.639Z,29.42
2018-11-26T14:38:20.360Z,30.52
2018-11-26T14:41:00.723Z,30.17
2018-11-26T14:43:40.688Z,35.25
2018-11-26T14:46:19.403Z,24.95
2018-11-26T14:48:58.925Z,31.17
2018-11-26T14:51:40.689Z,34.00
2018-11-26T14:54:21.639Z,28.05
2018-11-26T14:57:00.673Z,31.35
2018-11-26T14:59:41.643Z,33.58
2018-11-26T15:02:21.055Z,40.60
2018-11-26T15:05:01.643Z,37.05
2018-11-26T15:07:41.640Z,36.25
2018-11-26T15:10:31.624Z,32.73
2018-11-26T15:13:08.220Z,38.38
2018-11-26T15:15:48.015Z,31.90
2018-11-26T15:18:26.164Z,31.97
2018-11-26T15:21:08.361Z,34.10
2018-11-26T15:23:46.833Z,36.20
2018-11-26T15:26:28.224Z,35.80
2018-11-26T15:29:06.389Z,30.68
2018-11-26T15:31:50.245Z,31.68
2018-11-26T15:34:17.061Z,35.33
2018-11-26T15:36:58.865Z,31.87
2018-11-26T15:39:31.138Z,34.27
2018-11-26T15:41:59.281Z,35.75
2018-11-26T15:44:28.162Z,38.00
2018-11-26T15:46:56.153Z,34.27
2018-11-26T15:49:35.147Z,31.82
2018-11-26T15:52:14.215Z,37.23
2018-11-26T15:54:52.118Z,33.83
2018-11-26T15:57:31.114Z,35.58
2018-11-26T16:00:12.810Z,31.45
2018-11-26T16:02:51.642Z,31.70
2018-11-26T16:05:31.638Z,38.10
2018-11-26T16:08:13.047Z,34.67
2018-11-26T16:10:51.511Z,37.00
2018-11-26T16:13:30.943Z,39.83
2018-11-26T16:16:09.989Z,37.63
2018-11-26T16:18:50.276Z,34.88
2018-11-26T16:21:29.585Z,40.03
2018-11-26T16:24:09.164Z,33.58
2018-11-26T16:26:46.924Z,37.63
2018-11-26T16:29:25.867Z,34.70
2018-11-26T16:32:06.487Z,35.35
2018-11-26T16:34:45.376Z,37.25
2018-11-26T16:37:24.964Z,29.63
2018-11-26T16:40:04.058Z,32.33
2018-11-26T16:42:43.175Z,31.50
2018-11-26T16:45:28.841Z,29.85
2018-11-26T16:48:08.882Z,38.15
2018-11-26T16:50:49.647Z,42.08
2018-11-26T16:53:28.111Z,35.17
2018-11-26T16:56:09.431Z,35.63
2018-11-26T16:58:49.174Z,30.70
2018-11-26T17:01:28.989Z,37.33
2018-11-26T17:04:08.776Z,31.90
2018-11-26T17:06:49.592Z,38.17
2018-11-26T17:09:28.084Z,32.63
2018-11-26T17:12:06.549Z,36.28
2018-11-26T17:14:45.316Z,33.67
2018-11-26T17:17:22.556Z,31.75
2018-11-26T17:20:01.642Z,30.60
2018-11-26T17:22:40.615Z,31.05
2018-11-26T17:25:20.383Z,30.88
2018-11-26T17:28:00.820Z,33.50
2018-11-26T17:30:39.911Z,35.25
2018-11-26T17:33:19.658Z,30.52
2018-11-26T17:36:00.251Z,31.33
2018-11-26T17:38:39.764Z,28.38
2018-11-26T17:41:19.682Z,31.95
2018-11-26T17:43:58.795Z,34.00
2018-11-26T17:46:38.810Z,29.45
2018-11-26T17:49:18.927Z,30.48
2018-11-26T17:51:57.204Z,33.10
2018-11-26T17:54:38.608Z,31.27
2018-11-26T17:57:17.652Z,35.75
2018-11-26T17:59:56.691Z,32.38
2018-11-26T18:02:35.881Z,31.55
2018-11-26T18:05:18.023Z,31.75
2018-11-26T18:07:56.563Z,28.60
2018-11-26T18:10:35.331Z,32.75
2018-11-26T18:13:13.670Z,30.35
2018-11-26T18:15:53.182Z,32.03
2018-11-26T18:18:33.105Z,27.15
2018-11-26T18:21:11.520Z,28.38
2018-11-26T18:23:50.587Z,27.85
2018-11-26T18:26:31.640Z,30.50
2018-11-26T18:29:11.590Z,35.92
2018-11-26T18:31:50.237Z,27.82
2018-11-26T18:34:30.226Z,31.40
2018-11-26T18:37:10.916Z,27.45
2018-11-26T18:39:49.935Z,32.05
2018-11-26T18:42:28.004Z,33.13
2018-11-26T18:45:09.018Z,31.10
2018-11-26T18:47:46.783Z,29.80
2018-11-26T18:50:27.023Z,30.30
2018-11-26T18:53:06.107Z,25.55
2018-11-26T18:55:46.314Z,31.50
2018-11-26T18:58:25.216Z,31.37
2018-11-26T19:01:08.037Z,33.65
2018-11-26T19:03:48.783Z,30.65
2018-11-26T19:06:29.401Z,30.68
2018-11-26T19:09:10.035Z,32.45
2018-11-26T19:11:51.639Z,31.52
2018-11-26T19:14:31.225Z,34.75
2018-11-26T19:17:11.639Z,30.72
2018-11-26T19:19:50.353Z,32.55
2018-11-26T19:22:30.393Z,33.30
2018-11-26T19:25:08.732Z,29.60
2018-11-26T19:27:48.698Z,30.60
2018-11-26T19:30:27.197Z,32.73
2018-11-26T19:33:08.706Z,30.37
2018-11-26T19:35:48.614Z,29.23
2018-11-26T19:38:28.141Z,31.80
2018-11-26T19:41:06.606Z,28.47
2018-11-26T19:43:47.348Z,30.72
2018-11-26T19:46:27.564Z,28.25
2018-11-26T19:49:08.053Z,32.60
2018-11-26T19:51:46.445Z,32.05
2018-11-26T19:54:26.310Z,30.57
2018-11-26T19:57:05.403Z,30.30
2018-11-26T19:59:46.844Z,30.65
2018-11-26T20:02:26.361Z,29.87
2018-11-26T20:05:08.973Z,32.03
2018-11-26T20:07:47.312Z,29.77
2018-11-26T20:10:26.833Z,33.75
2018-11-26T20:13:05.747Z,32.70
2018-11-26T20:15:45.585Z,30.57
2018-11-26T20:18:28.464Z,30.57
2018-11-26T20:21:06.271Z,30.62
2018-11-26T20:23:46.637Z,30.25
2018-11-26T20:26:27.732Z,31.35
2018-11-26T20:29:08.470Z,38.45
2018-11-26T20:31:47.561Z,30.00
2018-11-26T20:34:28.405Z,32.30
2018-11-26T20:37:07.493Z,28.47
2018-11-26T20:39:49.722Z,30.97
2018-11-26T20:42:29.026Z,28.62
2018-11-26T20:45:08.320Z,33.53
2018-11-26T20:47:48.812Z,27.98
2018-11-26T20:50:28.876Z,36.20
2018-11-26T20:53:09.668Z,33.28
2018-11-26T20:55:48.107Z,33.67
2018-11-26T20:58:28.950Z,30.52
2018-11-26T21:01:07.743Z,29.70
2018-11-26T21:03:46.741Z,31.27
2018-11-26T21:06:25.648Z,35.60
2018-11-26T21:09:05.187Z,27.62
2018-11-26T21:11:43.457Z,25.90
2018-11-26T21:14:23.449Z,28.32
2018-11-26T21:17:03.411Z,29.95
2018-11-26T21:19:41.645Z,29.25
2018-11-26T21:22:20.922Z,27.48
2018-11-26T21:24:59.088Z,29.02
2018-11-26T21:27:38.206Z,28.05
2018-11-26T21:30:18.493Z,28.23
2018-11-26T21:32:59.366Z,26.20
2018-11-26T21:35:40.665Z,27.13
2018-11-26T21:38:21.645Z,31.40
2018-11-26T21:41:00.361Z,32.33
2018-11-26T21:43:38.501Z,27.00
2018-11-26T21:46:18.768Z,26.57
2018-11-26T21:48:57.755Z,30.75
2018-11-26T21:51:37.920Z,29.85
2018-11-26T21:54:19.190Z,30.88
2018-11-26T21:56:59.533Z,33.05
2018-11-26T21:59:38.519Z,33.63
2018-11-26T22:02:18.117Z,36.08
2018-11-26T22:04:57.528Z,36.77
2018-11-26T22:07:38.425Z,34.60
2018-11-26T22:10:19.286Z,37.80
2018-11-26T22:13:01.279Z,34.73
2018-11-26T22:15:40.317Z,36.93
2018-11-26T22:18:19.232Z,38.53
2018-11-26T22:20:58.177Z,34.98
2018-11-26T22:23:36.424Z,34.70
2018-11-26T22:26:16.536Z,33.88
2018-11-26T22:28:56.681Z,34.73
2018-11-26T22:31:35.365Z,36.85
2018-11-26T22:34:14.087Z,38.80
2018-11-26T22:36:54.095Z,37.95
2018-11-26T22:39:33.438Z,36.30
2018-11-26T22:42:11.652Z,33.55
2018-11-26T22:44:51.654Z,41.20
2018-11-26T22:47:31.654Z,34.08
2018-11-26T22:50:12.982Z,41.18
2018-11-26T22:52:51.654Z,43.87
2018-11-26T22:55:31.410Z,35.68
2018-11-26T22:58:10.629Z,38.90
2018-11-26T23:00:54.197Z,38.40
2018-11-26T23:03:36.482Z,38.33
2018-11-26T23:06:15.348Z,34.15
2018-11-26T23:08:53.843Z,34.88
2018-11-26T23:11:34.034Z,41.92
2018-11-26T23:14:12.872Z,38.33
2018-11-26T23:16:51.662Z,41.00
2018-11-26T23:19:31.656Z,46.05
2018-11-26T23:22:11.660Z,43.80
2018-11-26T23:24:51.660Z,44.18
2018-11-26T23:27:30.634Z,47.27
2018-11-26T23:30:11.659Z,39.58
2018-11-26T23:32:49.563Z,42.98
2018-11-26T23:35:30.332Z,42.67
2018-11-26T23:38:09.274Z,37.73
2018-11-26T23:40:50.162Z,39.63
2018-11-26T23:43:28.452Z,43.40
2018-11-26T23:46:08.469Z,41.15
2018-11-26T23:48:50.286Z,38.38
2018-11-26T23:51:30.473Z,43.87
2018-11-26T23:54:09.966Z,41.45
2018-11-26T23:56:49.284Z,39.67
2018-11-26T23:59:29.401Z,40.73
